createdAt,value
2022-07-30T00:00:28.488Z,3.93
2022-07-30T00:02:56.520Z,3.80
2022-07-30T00:05:24.563Z,3.80
2022-07-30T00:07:53.962Z,4.33
2022-07-30T00:10:22.955Z,3.27
2022-07-30T00:12:51.366Z,3.53
2022-07-30T00:15:19.413Z,4.07
2022-07-30T00:17:49.309Z,3.73
2022-07-30T00:20:18.434Z,3.20
2022-07-30T00:22:46.956Z,3.87
2022-07-30T00:25:18.845Z,3.13
2022-07-30T00:27:47.206Z,4.50
2022-07-30T00:30:15.894Z,3.07
2022-07-30T00:32:43.988Z,4.33
2022-07-30T00:35:12.395Z,3.23
2022-07-30T00:37:40.502Z,3.30
2022-07-30T00:40:11.381Z,3.23
2022-07-30T00:42:43.301Z,3.97
2022-07-30T00:45:12.511Z,3.90
2022-07-30T00:47:41.829Z,4.40
2022-07-30T00:50:12.456Z,3.60
2022-07-30T00:52:41.861Z,3.47
2022-07-30T00:55:15.110Z,3.00
2022-07-30T00:57:44.751Z,3.63
2022-07-30T01:00:16.699Z,2.90
2022-07-30T01:02:44.864Z,2.77
2022-07-30T01:05:13.384Z,3.57
2022-07-30T01:07:41.553Z,3.07
2022-07-30T01:10:12.127Z,2.70
2022-07-30T01:12:41.505Z,3.10
2022-07-30T01:15:12.772Z,3.37
2022-07-30T01:17:41.278Z,3.23
2022-07-30T01:20:16.368Z,2.90
2022-07-30T01:22:54.461Z,2.90
2022-07-30T01:25:51.297Z,3.13
2022-07-30T01:28:23.738Z,3.03
2022-07-30T01:30:52.523Z,4.07
2022-07-30T01:33:23.211Z,3.10
2022-07-30T01:35:52.822Z,2.70
2022-07-30T01:38:24.080Z,2.87
2022-07-30T01:40:55.812Z,3.13
2022-07-30T01:43:25.971Z,2.97
2022-07-30T01:45:56.508Z,3.37
2022-07-30T01:48:27.656Z,3.13
2022-07-30T01:50:59.585Z,3.00
2022-07-30T01:53:31.197Z,3.00
2022-07-30T01:56:02.802Z,3.00
2022-07-30T01:58:37.040Z,3.47
2022-07-30T02:01:05.632Z,2.80
2022-07-30T02:03:34.004Z,2.30
2022-07-30T02:06:09.449Z,2.80
2022-07-30T02:08:42.519Z,2.87
2022-07-30T02:11:36.952Z,2.47
2022-07-30T02:14:10.476Z,2.70
2022-07-30T02:16:42.836Z,3.13
2022-07-30T02:19:14.216Z,3.33
2022-07-30T02:21:50.280Z,3.00
2022-07-30T02:24:25.788Z,2.83
2022-07-30T02:27:03.281Z,2.90
2022-07-30T02:29:34.781Z,2.90
2022-07-30T02:32:06.885Z,3.53
2022-07-30T02:34:37.878Z,3.30
2022-07-30T02:37:07.632Z,3.03
2022-07-30T02:39:37.052Z,2.80
2022-07-30T02:42:08.866Z,2.70
2022-07-30T02:44:39.816Z,2.83
2022-07-30T02:47:08.700Z,2.70
2022-07-30T02:49:39.450Z,3.20
2022-07-30T02:52:12.174Z,2.70
2022-07-30T02:54:43.364Z,2.70
2022-07-30T02:57:14.989Z,2.60
2022-07-30T02:59:45.813Z,2.60
2022-07-30T03:02:15.073Z,2.60
2022-07-30T03:04:44.432Z,2.90
2022-07-30T03:07:17.794Z,2.80
2022-07-30T03:09:51.078Z,2.30
2022-07-30T03:12:23.770Z,2.40
2022-07-30T03:14:52.659Z,2.83
2022-07-30T03:17:23.061Z,2.43
2022-07-30T03:19:52.418Z,2.67
2022-07-30T03:22:22.790Z,2.53
2022-07-30T03:24:51.697Z,2.67
2022-07-30T03:27:22.325Z,3.10
2022-07-30T03:29:53.993Z,2.87
2022-07-30T03:32:26.018Z,2.63
2022-07-30T03:34:56.125Z,2.43
2022-07-30T03:37:26.090Z,3.00
2022-07-30T03:39:55.244Z,2.83
2022-07-30T03:42:25.477Z,2.70
2022-07-30T03:44:54.374Z,2.43
2022-07-30T03:47:24.657Z,3.03
2022-07-30T03:49:53.310Z,2.50
2022-07-30T03:52:21.953Z,2.30
2022-07-30T03:54:50.307Z,2.57
2022-07-30T03:57:20.606Z,2.63
2022-07-30T03:59:51.630Z,2.80
2022-07-30T04:02:19.733Z,2.30
2022-07-30T04:04:48.036Z,2.43
2022-07-30T04:07:16.187Z,2.60
2022-07-30T04:09:44.441Z,2.50
2022-07-30T04:12:13.723Z,2.70
2022-07-30T04:14:45.372Z,3.10
2022-07-30T04:17:21.257Z,2.47
2022-07-30T04:19:53.890Z,2.23
2022-07-30T04:22:27.059Z,2.47
2022-07-30T04:24:56.760Z,2.47
2022-07-30T04:27:25.825Z,3.00
2022-07-30T04:29:54.056Z,2.00
2022-07-30T04:32:24.139Z,2.70
2022-07-30T04:34:55.128Z,2.40
2022-07-30T04:37:26.849Z,1.93
2022-07-30T04:39:57.685Z,2.23
2022-07-30T04:42:26.573Z,2.00
2022-07-30T04:44:55.890Z,2.90
2022-07-30T04:47:26.311Z,2.70
2022-07-30T04:49:55.755Z,2.60
2022-07-30T04:52:25.914Z,2.40
2022-07-30T04:54:58.096Z,2.53
2022-07-30T04:57:28.394Z,2.73
2022-07-30T04:59:56.432Z,2.57
2022-07-30T05:02:31.027Z,2.40
2022-07-30T05:05:01.717Z,2.80
2022-07-30T05:07:32.857Z,2.20
2022-07-30T05:10:01.058Z,2.40
2022-07-30T05:12:34.157Z,2.80
2022-07-30T05:15:02.415Z,2.53
2022-07-30T05:17:31.980Z,2.40
2022-07-30T05:20:00.232Z,4.27
2022-07-30T05:22:30.624Z,3.00
2022-07-30T05:24:58.786Z,4.63
2022-07-30T05:27:26.950Z,4.77
2022-07-30T05:29:55.517Z,4.30
2022-07-30T05:32:25.506Z,4.40
2022-07-30T05:34:58.464Z,4.30
2022-07-30T05:37:26.549Z,3.90
2022-07-30T05:40:02.750Z,5.17
2022-07-30T05:42:31.587Z,4.53
2022-07-30T05:45:00.147Z,5.17
2022-07-30T05:47:28.322Z,6.93
2022-07-30T05:50:01.457Z,6.50
2022-07-30T05:52:32.345Z,4.30
2022-07-30T05:55:00.411Z,4.90
2022-07-30T05:57:28.609Z,3.83
2022-07-30T05:59:56.718Z,5.87
2022-07-30T06:02:24.913Z,6.07
2022-07-30T06:04:53.480Z,6.40
2022-07-30T06:07:22.949Z,7.50
2022-07-30T06:09:50.977Z,7.10
2022-07-30T06:12:19.824Z,9.40
2022-07-30T06:14:47.878Z,6.93
2022-07-30T06:17:15.901Z,6.33
2022-07-30T06:19:43.953Z,7.63
2022-07-30T06:22:11.993Z,10.83
2022-07-30T06:24:41.450Z,12.80
2022-07-30T06:27:09.970Z,13.80
2022-07-30T06:29:38.445Z,14.33
2022-07-30T06:32:07.301Z,14.53
2022-07-30T06:34:35.377Z,13.33
2022-07-30T06:37:03.858Z,16.17
2022-07-30T06:39:57.934Z,14.93
2022-07-30T06:42:21.433Z,14.97
2022-07-30T06:44:49.501Z,18.27
2022-07-30T06:47:25.987Z,17.77
2022-07-30T06:49:54.317Z,16.80
2022-07-30T06:52:22.410Z,17.20
2022-07-30T06:54:51.014Z,18.20
2022-07-30T06:57:19.065Z,17.50
2022-07-30T06:59:56.208Z,16.87
2022-07-30T07:02:25.941Z,18.40
2022-07-30T07:04:54.762Z,20.60
2022-07-30T07:07:40.253Z,18.50
2022-07-30T07:10:11.006Z,20.10
2022-07-30T07:12:39.094Z,18.83
2022-07-30T07:15:10.705Z,19.53
2022-07-30T07:17:40.271Z,18.50
2022-07-30T07:20:09.829Z,19.73
2022-07-30T07:22:37.898Z,18.27
2022-07-30T07:25:07.290Z,19.80
2022-07-30T07:27:35.393Z,16.60
2022-07-30T07:30:05.356Z,18.17
2022-07-30T07:32:36.021Z,17.90
2022-07-30T07:35:04.376Z,15.50
2022-07-30T07:37:32.374Z,15.67
2022-07-30T07:40:00.705Z,14.80
2022-07-30T07:42:28.787Z,14.00
2022-07-30T07:44:56.821Z,14.73
2022-07-30T07:47:24.930Z,14.30
2022-07-30T07:49:57.397Z,12.23
2022-07-30T07:52:25.477Z,11.70
2022-07-30T07:54:53.506Z,11.70
2022-07-30T07:57:21.605Z,10.50
2022-07-30T07:59:51.512Z,10.27
2022-07-30T08:02:19.640Z,8.97
2022-07-30T08:04:47.760Z,9.67
2022-07-30T08:07:17.146Z,10.40
2022-07-30T08:09:45.201Z,9.97
2022-07-30T08:12:13.544Z,10.97
2022-07-30T08:14:41.705Z,9.50
2022-07-30T08:17:10.131Z,10.10
2022-07-30T08:19:38.215Z,9.83
2022-07-30T08:22:06.436Z,11.40
2022-07-30T08:24:36.109Z,10.93
2022-07-30T08:27:04.723Z,9.83
2022-07-30T08:29:32.949Z,10.53
2022-07-30T08:32:01.139Z,9.63
2022-07-30T08:34:29.727Z,8.70
2022-07-30T08:36:57.877Z,9.07
2022-07-30T08:39:25.934Z,7.53
2022-07-30T08:41:55.950Z,8.17
2022-07-30T08:44:25.363Z,9.40
2022-07-30T08:46:56.128Z,9.10
2022-07-30T08:49:24.683Z,6.97
2022-07-30T08:51:53.470Z,8.03
2022-07-30T08:54:21.987Z,8.33
2022-07-30T08:56:50.494Z,7.43
2022-07-30T08:59:20.115Z,7.50
2022-07-30T09:01:49.754Z,7.47
2022-07-30T09:04:17.858Z,8.20
2022-07-30T09:06:46.489Z,8.23
2022-07-30T09:09:16.205Z,8.17
2022-07-30T09:11:44.290Z,8.00
2022-07-30T09:14:15.328Z,6.77
2022-07-30T09:16:46.261Z,6.23
2022-07-30T09:19:17.204Z,6.30
2022-07-30T09:21:57.679Z,8.03
2022-07-30T09:24:26.633Z,7.10
2022-07-30T09:26:58.457Z,8.33
2022-07-30T09:29:28.653Z,9.03
2022-07-30T09:32:01.515Z,8.70
2022-07-30T09:34:32.764Z,9.13
2022-07-30T09:37:02.849Z,7.80
2022-07-30T09:39:36.829Z,9.00
2022-07-30T09:42:17.699Z,8.33
2022-07-30T09:44:46.301Z,8.17
2022-07-30T09:47:31.482Z,6.87
2022-07-30T09:50:07.283Z,7.77
2022-07-30T09:52:36.569Z,7.23
2022-07-30T09:55:13.466Z,7.10
2022-07-30T09:57:58.802Z,8.17
2022-07-30T10:00:29.510Z,7.63
2022-07-30T10:03:00.413Z,7.23
2022-07-30T10:05:50.378Z,7.43
2022-07-30T10:08:21.625Z,7.67
2022-07-30T10:10:50.891Z,7.53
2022-07-30T10:13:21.139Z,6.97
2022-07-30T10:15:51.293Z,7.13
2022-07-30T10:18:20.722Z,6.90
2022-07-30T10:20:49.887Z,6.80
2022-07-30T10:23:22.649Z,7.57
2022-07-30T10:25:57.220Z,6.43
2022-07-30T10:28:25.606Z,6.87
2022-07-30T10:30:55.070Z,6.13
2022-07-30T10:33:36.366Z,6.43
2022-07-30T10:36:12.680Z,5.90
2022-07-30T10:38:45.882Z,4.77
2022-07-30T10:41:42.271Z,4.50
2022-07-30T10:44:34.943Z,4.77
2022-07-30T10:47:07.721Z,4.70
2022-07-30T10:49:40.956Z,5.20
2022-07-30T10:52:10.824Z,4.50
2022-07-30T10:54:41.980Z,4.20
2022-07-30T10:57:14.738Z,4.30
2022-07-30T11:00:12.070Z,4.30
2022-07-30T11:02:40.333Z,3.60
2022-07-30T11:05:45.211Z,3.93
2022-07-30T11:08:36.116Z,4.23
2022-07-30T11:11:19.750Z,4.13
2022-07-30T11:13:54.581Z,3.80
2022-07-30T11:16:25.559Z,3.50
2022-07-30T11:19:56.204Z,3.93
2022-07-30T11:22:28.139Z,3.40
2022-07-30T11:24:56.855Z,3.30
2022-07-30T11:27:37.368Z,4.03
2022-07-30T11:30:08.749Z,3.60
2022-07-30T11:32:37.305Z,4.10
2022-07-30T11:35:16.343Z,3.23
2022-07-30T11:38:06.955Z,3.70
2022-07-30T11:40:37.846Z,3.83
2022-07-30T11:43:35.287Z,3.97
2022-07-30T11:46:10.518Z,4.13
2022-07-30T11:48:41.656Z,3.70
2022-07-30T11:51:10.689Z,3.90
2022-07-30T11:53:40.067Z,3.23
2022-07-30T11:56:10.307Z,3.50
2022-07-30T11:58:44.623Z,3.27
2022-07-30T12:01:15.371Z,3.10
2022-07-30T12:03:45.452Z,3.90
2022-07-30T12:06:17.941Z,3.23
2022-07-30T12:08:50.659Z,3.67
2022-07-30T12:11:21.318Z,3.03
2022-07-30T12:13:59.534Z,3.57
2022-07-30T12:16:29.493Z,3.70
2022-07-30T12:19:03.000Z,2.67
2022-07-30T12:21:35.973Z,2.90
2022-07-30T12:24:09.815Z,2.87
2022-07-30T12:26:38.181Z,2.93
2022-07-30T12:29:11.585Z,2.63
2022-07-30T12:31:40.445Z,3.20
2022-07-30T12:34:21.832Z,3.43
2022-07-30T12:36:49.957Z,3.27
2022-07-30T12:39:24.709Z,3.77
2022-07-30T12:41:55.954Z,3.00
2022-07-30T12:44:39.455Z,3.93
2022-07-30T12:47:20.278Z,3.90
2022-07-30T12:49:50.217Z,3.90
2022-07-30T12:52:30.939Z,2.80
2022-07-30T12:55:05.248Z,2.80
2022-07-30T12:57:53.464Z,2.90
2022-07-30T13:00:22.266Z,2.60
2022-07-30T13:02:50.342Z,3.00
2022-07-30T13:05:18.825Z,2.70
2022-07-30T13:07:58.454Z,2.70
2022-07-30T13:10:31.548Z,2.60
2022-07-30T13:12:59.882Z,3.27
2022-07-30T13:15:27.975Z,2.53
2022-07-30T13:17:56.086Z,2.67
2022-07-30T13:20:24.168Z,3.07
2022-07-30T13:22:52.207Z,2.83
2022-07-30T13:25:20.437Z,3.00
2022-07-30T13:27:50.189Z,2.70
2022-07-30T13:30:18.261Z,2.40
2022-07-30T13:32:46.295Z,3.00
2022-07-30T13:35:14.345Z,3.17
2022-07-30T13:37:42.374Z,5.50
2022-07-30T13:40:11.699Z,7.80
2022-07-30T13:42:39.744Z,5.97
2022-07-30T13:45:10.687Z,4.20
2022-07-30T13:47:38.722Z,4.90
2022-07-30T13:50:07.654Z,3.50
2022-07-30T13:52:35.750Z,3.10
2022-07-30T13:55:03.863Z,2.70
2022-07-30T13:57:31.895Z,3.17
2022-07-30T13:59:59.944Z,4.53
2022-07-30T14:02:32.112Z,2.93
2022-07-30T14:05:00.220Z,3.50
2022-07-30T14:07:28.212Z,3.13
2022-07-30T14:09:56.267Z,3.70
2022-07-30T14:12:24.313Z,5.27
2022-07-30T14:14:52.353Z,5.90
2022-07-30T14:17:20.398Z,4.43
2022-07-30T14:19:51.264Z,3.30
2022-07-30T14:22:19.288Z,3.57
2022-07-30T14:24:47.308Z,3.13
2022-07-30T14:27:16.324Z,2.80
2022-07-30T14:29:44.506Z,2.37
2022-07-30T14:32:12.630Z,3.90
2022-07-30T14:34:41.145Z,2.90
2022-07-30T14:37:18.646Z,2.80
2022-07-30T14:39:46.681Z,2.80
2022-07-30T14:42:14.751Z,2.50
2022-07-30T14:44:42.869Z,2.60
2022-07-30T14:47:10.982Z,2.47
2022-07-30T14:49:39.127Z,2.20
2022-07-30T14:52:07.649Z,1.70
2022-07-30T14:54:37.006Z,2.23
2022-07-30T14:57:08.462Z,1.93
2022-07-30T14:59:36.900Z,2.10
2022-07-30T15:02:05.394Z,1.60
2022-07-30T15:04:38.769Z,1.90
2022-07-30T15:07:06.970Z,1.83
2022-07-30T15:09:36.776Z,2.27
2022-07-30T15:12:24.140Z,2.37
2022-07-30T15:14:53.689Z,1.80
2022-07-30T15:17:21.878Z,1.90
2022-07-30T15:19:51.250Z,1.77
2022-07-30T15:22:20.002Z,1.90
2022-07-30T15:24:49.884Z,2.00
2022-07-30T15:27:18.044Z,1.80
2022-07-30T15:29:46.077Z,1.63
2022-07-30T15:32:14.138Z,1.77
2022-07-30T15:34:42.141Z,1.73
2022-07-30T15:37:10.461Z,1.77
2022-07-30T15:39:38.579Z,1.63
2022-07-30T15:42:08.473Z,1.70
2022-07-30T15:44:42.244Z,1.50
2022-07-30T15:47:16.117Z,1.47
2022-07-30T15:49:44.537Z,1.63
2022-07-30T15:52:12.934Z,1.60
2022-07-30T15:54:41.565Z,2.00
2022-07-30T15:57:10.949Z,1.97
2022-07-30T15:59:39.372Z,1.33
2022-07-30T16:02:07.732Z,2.07
2022-07-30T16:04:35.869Z,1.77
2022-07-30T16:07:04.739Z,1.77
2022-07-30T16:09:32.984Z,1.73
2022-07-30T16:12:01.995Z,2.07
2022-07-30T16:14:31.646Z,2.00
2022-07-30T16:16:59.697Z,2.03
2022-07-30T16:19:28.356Z,1.67
2022-07-30T16:21:56.708Z,1.70
2022-07-30T16:24:24.817Z,2.00
2022-07-30T16:26:52.842Z,2.10
2022-07-30T16:29:21.116Z,2.43
2022-07-30T16:31:50.584Z,3.00
2022-07-30T16:34:26.298Z,2.20
2022-07-30T16:36:55.102Z,2.67
2022-07-30T16:39:23.354Z,2.70
2022-07-30T16:41:51.444Z,2.60
2022-07-30T16:44:19.481Z,2.70
2022-07-30T16:46:48.430Z,2.53
2022-07-30T16:49:17.963Z,3.37
2022-07-30T16:51:46.355Z,2.63
2022-07-30T16:54:14.419Z,3.53
2022-07-30T16:56:42.565Z,3.40
2022-07-30T16:59:13.727Z,3.60
2022-07-30T17:01:42.044Z,3.73
2022-07-30T17:04:10.113Z,3.80
2022-07-30T17:06:40.977Z,3.60
2022-07-30T17:09:09.132Z,4.23
2022-07-30T17:11:46.149Z,4.97
2022-07-30T17:14:16.671Z,4.10
2022-07-30T17:16:44.756Z,3.40
2022-07-30T17:19:12.882Z,3.83
2022-07-30T17:21:42.292Z,3.27
2022-07-30T17:24:13.419Z,4.20
2022-07-30T17:26:43.116Z,3.57
2022-07-30T17:29:14.245Z,3.93
2022-07-30T17:31:43.950Z,3.40
2022-07-30T17:34:14.534Z,3.30
2022-07-30T17:36:51.801Z,3.23
2022-07-30T17:40:26.551Z,3.23
2022-07-30T17:42:10.194Z,4.17
2022-07-30T17:44:39.153Z,3.43
2022-07-30T17:47:12.345Z,3.20
2022-07-30T17:49:42.000Z,4.07
2022-07-30T17:52:11.480Z,2.87
2022-07-30T17:54:39.591Z,3.10
2022-07-30T17:57:07.790Z,3.37
2022-07-30T17:59:35.886Z,3.50
2022-07-30T18:02:04.715Z,3.27
2022-07-30T18:04:33.323Z,3.50
2022-07-30T18:07:01.472Z,3.30
2022-07-30T18:09:38.994Z,3.30
2022-07-30T18:12:08.925Z,2.83
2022-07-30T18:14:37.250Z,2.90
2022-07-30T18:17:08.127Z,2.60
2022-07-30T18:19:38.156Z,3.60
2022-07-30T18:22:08.904Z,3.20
2022-07-30T18:24:40.525Z,2.77
2022-07-30T18:27:12.552Z,3.47
2022-07-30T18:29:40.771Z,3.40
2022-07-30T18:32:09.363Z,2.37
2022-07-30T18:34:37.482Z,3.00
2022-07-30T18:37:05.511Z,2.90
2022-07-30T18:39:33.606Z,2.40
2022-07-30T18:42:03.400Z,2.67
2022-07-30T18:44:32.266Z,2.70
2022-07-30T18:47:00.733Z,3.20
2022-07-30T18:49:37.715Z,2.97
2022-07-30T18:52:08.878Z,2.57
2022-07-30T18:54:37.667Z,2.67
2022-07-30T18:57:12.556Z,3.30
2022-07-30T18:59:42.957Z,2.40
2022-07-30T19:02:11.116Z,2.90
2022-07-30T19:04:39.185Z,2.63
2022-07-30T19:07:07.454Z,3.37
2022-07-30T19:09:35.563Z,2.53
2022-07-30T19:12:04.236Z,3.33
2022-07-30T19:14:33.843Z,2.93
2022-07-30T19:17:01.873Z,2.57
2022-07-30T19:19:31.072Z,3.30
2022-07-30T19:21:59.649Z,3.27
2022-07-30T19:24:27.990Z,3.47
2022-07-30T19:26:56.791Z,3.03
2022-07-30T19:29:25.212Z,3.70
2022-07-30T19:31:54.950Z,4.33
2022-07-30T19:34:23.193Z,2.90
2022-07-30T19:36:51.261Z,3.40
2022-07-30T19:39:21.601Z,2.87
2022-07-30T19:42:02.016Z,2.93
2022-07-30T19:44:30.582Z,2.63
2022-07-30T19:47:00.273Z,3.20
2022-07-30T19:49:29.669Z,2.87
2022-07-30T19:52:10.627Z,2.97
2022-07-30T19:54:46.396Z,3.20
2022-07-30T19:57:15.078Z,3.17
2022-07-30T19:59:55.639Z,2.90
2022-07-30T20:02:35.606Z,3.20
2022-07-30T20:05:03.979Z,2.90
2022-07-30T20:07:34.262Z,4.37
2022-07-30T20:10:03.757Z,4.13
2022-07-30T20:12:31.799Z,3.97
2022-07-30T20:14:59.857Z,3.90
2022-07-30T20:17:27.972Z,4.33
2022-07-30T20:19:58.064Z,5.33
2022-07-30T20:22:28.875Z,4.13
2022-07-30T20:24:57.374Z,4.60
2022-07-30T20:27:37.113Z,4.30
2022-07-30T20:30:09.409Z,4.67
2022-07-30T20:32:40.569Z,4.43
2022-07-30T20:35:15.942Z,4.70
2022-07-30T20:40:38.893Z,4.50
2022-07-30T20:43:07.941Z,4.80
2022-07-30T20:45:37.775Z,5.00
2022-07-30T20:48:17.437Z,4.87
2022-07-30T20:50:55.389Z,5.00
2022-07-30T20:53:23.988Z,5.53
2022-07-30T20:56:01.769Z,5.33
2022-07-30T20:58:29.840Z,5.00
2022-07-30T21:00:57.973Z,5.10
2022-07-30T21:03:26.082Z,4.80
2022-07-30T21:05:59.230Z,4.20
2022-07-30T21:08:28.015Z,5.00
2022-07-30T21:10:56.135Z,5.30
2022-07-30T21:13:26.179Z,5.97
2022-07-30T21:16:02.613Z,7.83
2022-07-30T21:18:32.815Z,9.30
2022-07-30T21:21:05.078Z,9.70
2022-07-30T21:23:34.207Z,9.03
2022-07-30T21:26:07.009Z,8.73
2022-07-30T21:28:38.775Z,9.50
2022-07-30T21:31:08.607Z,10.20
2022-07-30T21:33:37.502Z,9.53
2022-07-30T21:36:10.824Z,9.17
2022-07-30T21:38:41.935Z,9.10
2022-07-30T21:41:14.500Z,9.27
2022-07-30T21:43:44.434Z,9.87
2022-07-30T21:46:13.150Z,8.47
2022-07-30T21:48:42.991Z,8.97
2022-07-30T21:51:12.878Z,9.10
2022-07-30T21:53:44.922Z,9.43
2022-07-30T21:56:15.820Z,10.00
2022-07-30T21:58:45.388Z,8.93
2022-07-30T22:01:21.686Z,9.30
2022-07-30T22:04:02.744Z,9.50
2022-07-30T22:06:38.233Z,8.60
2022-07-30T22:09:19.062Z,8.50
2022-07-30T22:11:55.490Z,9.10
2022-07-30T22:14:25.477Z,8.20
2022-07-30T22:16:53.927Z,8.27
2022-07-30T22:19:22.671Z,8.20
2022-07-30T22:21:52.122Z,9.83
2022-07-30T22:24:29.509Z,9.40
2022-07-30T22:27:01.169Z,8.90
2022-07-30T22:29:34.386Z,8.00
2022-07-30T22:32:06.210Z,8.33
2022-07-30T22:34:36.181Z,7.40
2022-07-30T22:37:12.533Z,8.10
2022-07-30T22:39:51.637Z,8.03
2022-07-30T22:42:20.882Z,7.57
2022-07-30T22:44:54.776Z,8.67
2022-07-30T22:47:51.417Z,8.47
2022-07-30T22:50:17.180Z,8.10
2022-07-30T22:52:55.401Z,8.37
2022-07-30T22:55:30.218Z,8.60
2022-07-30T22:57:59.897Z,9.07
2022-07-30T23:00:28.717Z,9.03
2022-07-30T23:02:58.658Z,8.97
2022-07-30T23:05:27.161Z,8.60
2022-07-30T23:07:56.565Z,9.20
2022-07-30T23:10:25.614Z,7.53
2022-07-30T23:12:19.208Z,5.50
2022-07-30T23:12:56.160Z,6.13
2022-07-30T23:15:24.727Z,7.03
2022-07-30T23:17:53.036Z,6.73
2022-07-30T23:20:22.667Z,6.57
2022-07-30T23:22:51.424Z,7.93
2022-07-30T23:25:20.857Z,5.93
2022-07-30T23:27:48.917Z,6.80
2022-07-30T23:30:17.067Z,6.10
2022-07-30T23:32:45.296Z,7.13
2022-07-30T23:35:13.365Z,5.90
2022-07-30T23:37:48.948Z,5.30
2022-07-30T23:40:19.853Z,7.23
2022-07-30T23:42:50.121Z,4.90
2022-07-30T23:45:18.518Z,5.57
2022-07-30T23:48:00.211Z,4.80
2022-07-30T23:50:32.071Z,5.00
2022-07-30T23:53:00.390Z,4.83
2022-07-30T23:55:30.579Z,4.03
2022-07-30T23:57:59.958Z,4.57
